Mountain Home, Wyoming
Current Conditions -  °F | °C
As of 8:53 AM on Friday 24 Oct 2014 (Local Time) from KLAR Reporting Station
Clear Clear  
Wind Chill: 54°   Ceiling: Unl
Heat Index: 54°   Visibility: 10mi
Dew Point: 26°   Wind: 18mph
Humidity: 34%   Direction: 230°SW
Pressure: 30.27"   Gusts: 26mph
Location:  41.2601°N, 105.565°W
Report Text: KLAR 241453Z AUTO 23016G23KT 10SM CLR 12/M03 A3027 RMK AO2 SLP172 T01221033 53012
Loading
Personal Weather Stations






























Interactive Weather Map
Tropical Storm Tracking
New forecast layout! Learn more

10-Day Weather Forecast

Advertisements
Track Severe Weather on mobile